sensor_id;sensor_type;location;lat;lon;timestamp;pressure;altitude;pressure_sealevel;temperature;humidity
47154;BME280;32907;41.412;2.164;2024-02-15T00:00:22;101119.25;;;20.72;51.73
47154;BME280;32907;41.412;2.164;2024-02-15T00:02:50;101119.78;;;20.69;52.12
47154;BME280;32907;41.412;2.164;2024-02-15T00:05:19;101119.25;;;20.72;51.79
47154;BME280;32907;41.412;2.164;2024-02-15T00:07:47;101128.81;;;20.70;52.04
47154;BME280;32907;41.412;2.164;2024-02-15T00:10:17;101131.53;;;20.70;52.19
47154;BME280;32907;41.412;2.164;2024-02-15T00:12:45;101113.53;;;20.68;51.99
47154;BME280;32907;41.412;2.164;2024-02-15T00:15:13;101107.28;;;20.68;52.08
47154;BME280;32907;41.412;2.164;2024-02-15T00:17:41;101113.81;;;20.67;52.25
47154;BME280;32907;41.412;2.164;2024-02-15T00:20:10;101110.28;;;20.66;52.37
47154;BME280;32907;41.412;2.164;2024-02-15T00:22:38;101104.88;;;20.61;52.10
47154;BME280;32907;41.412;2.164;2024-02-15T00:25:09;101107.84;;;20.65;52.13
47154;BME280;32907;41.412;2.164;2024-02-15T00:27:38;101122.56;;;20.64;51.96
47154;BME280;32907;41.412;2.164;2024-02-15T00:30:07;101118.75;;;20.65;52.08
47154;BME280;32907;41.412;2.164;2024-02-15T00:32:35;101107.84;;;20.65;52.10
47154;BME280;32907;41.412;2.164;2024-02-15T00:35:05;101106.22;;;20.64;52.39
47154;BME280;32907;41.412;2.164;2024-02-15T00:37:40;101117.94;;;20.64;52.13
47154;BME280;32907;41.412;2.164;2024-02-15T00:40:08;101120.94;;;20.63;52.22
47154;BME280;32907;41.412;2.164;2024-02-15T00:42:37;101122.31;;;20.60;52.34
47154;BME280;32907;41.412;2.164;2024-02-15T00:45:05;101131.84;;;20.58;52.23
47154;BME280;32907;41.412;2.164;2024-02-15T00:47:36;101132.69;;;20.58;51.76
47154;BME280;32907;41.412;2.164;2024-02-15T00:50:06;101131.34;;;20.56;52.19
47154;BME280;32907;41.412;2.164;2024-02-15T00:52:35;101134.34;;;20.54;52.07
47154;BME280;32907;41.412;2.164;2024-02-15T00:55:04;101124.81;;;20.52;52.32
47154;BME280;32907;41.412;2.164;2024-02-15T00:57:32;101124.28;;;20.50;52.36
47154;BME280;32907;41.412;2.164;2024-02-15T01:00:01;101124.03;;;20.46;52.57
47154;BME280;32907;41.412;2.164;2024-02-15T01:02:31;101118.28;;;20.48;52.75
47154;BME280;32907;41.412;2.164;2024-02-15T01:04:59;101112.56;;;20.44;53.16
47154;BME280;32907;41.412;2.164;2024-02-15T01:07:28;101109.88;;;20.39;53.39
47154;BME280;32907;41.412;2.164;2024-02-15T01:09:56;101089.72;;;20.35;53.70
47154;BME280;32907;41.412;2.164;2024-02-15T01:12:24;101083.44;;;20.34;53.95
47154;BME280;32907;41.412;2.164;2024-02-15T01:14:52;101088.38;;;20.32;53.92
47154;BME280;32907;41.412;2.164;2024-02-15T01:17:20;101089.47;;;20.31;54.05
47154;BME280;32907;41.412;2.164;2024-02-15T01:19:48;101104.19;;;20.30;53.95
47154;BME280;32907;41.412;2.164;2024-02-15T01:22:16;101103.91;;;20.32;54.12
47154;BME280;32907;41.412;2.164;2024-02-15T01:24:45;101101.47;;;20.30;54.35
47154;BME280;32907;41.412;2.164;2024-02-15T01:27:13;101113.72;;;20.28;54.52
47154;BME280;32907;41.412;2.164;2024-02-15T01:29:42;101111.28;;;20.26;54.44
47154;BME280;32907;41.412;2.164;2024-02-15T01:32:10;101102.56;;;20.24;54.24
47154;BME280;32907;41.412;2.164;2024-02-15T01:34:40;101107.72;;;20.26;54.42
47154;BME280;32907;41.412;2.164;2024-02-15T01:37:08;101086.53;;;20.18;54.37
47154;BME280;32907;41.412;2.164;2024-02-15T01:39:37;101107.44;;;20.27;54.05
47154;BME280;32907;41.412;2.164;2024-02-15T01:42:05;101109.63;;;20.25;54.43
47154;BME280;32907;41.412;2.164;2024-02-15T01:44:34;101104.19;;;20.25;54.41
47154;BME280;32907;41.412;2.164;2024-02-15T01:47:04;101116.19;;;20.24;54.39
47154;BME280;32907;41.412;2.164;2024-02-15T01:49:33;101112.91;;;20.27;54.57
47154;BME280;32907;41.412;2.164;2024-02-15T01:52:03;101102.56;;;20.24;54.37
47154;BME280;32907;41.412;2.164;2024-02-15T01:54:34;101106.09;;;20.25;54.45
47154;BME280;32907;41.412;2.164;2024-02-15T01:57:04;101111.84;;;20.23;54.70
47154;BME280;32907;41.412;2.164;2024-02-15T01:59:32;101106.94;;;20.20;54.67
47154;BME280;32907;41.412;2.164;2024-02-15T02:02:02;101103.13;;;20.21;54.96
47154;BME280;32907;41.412;2.164;2024-02-15T02:04:31;101100.41;;;20.21;54.82
47154;BME280;32907;41.412;2.164;2024-02-15T02:07:00;101083.50;;;20.19;54.71
47154;BME280;32907;41.412;2.164;2024-02-15T02:09:28;101095.22;;;20.25;54.82
47154;BME280;32907;41.412;2.164;2024-02-15T02:11:57;101096.84;;;20.21;54.63
47154;BME280;32907;41.412;2.164;2024-02-15T02:14:25;101088.97;;;20.19;54.85
47154;BME280;32907;41.412;2.164;2024-02-15T02:16:54;101085.72;;;20.17;54.93
47154;BME280;32907;41.412;2.164;2024-02-15T02:19:22;101078.91;;;20.15;55.00
47154;BME280;32907;41.412;2.164;2024-02-15T02:21:51;101072.38;;;20.16;55.17
47154;BME280;32907;41.412;2.164;2024-02-15T02:24:22;101059.88;;;20.15;54.79
47154;BME280;32907;41.412;2.164;2024-02-15T02:26:51;101039.75;;;20.05;54.99
47154;BME280;32907;41.412;2.164;2024-02-15T02:29:21;101050.66;;;20.05;54.69
47154;BME280;32907;41.412;2.164;2024-02-15T02:31:49;101050.31;;;20.12;54.47
47154;BME280;32907;41.412;2.164;2024-02-15T02:34:17;101038.63;;;20.11;54.50
47154;BME280;32907;41.412;2.164;2024-02-15T02:36:47;101001.44;;;19.87;54.65
47154;BME280;32907;41.412;2.164;2024-02-15T02:39:16;101029.63;;;20.11;54.72
47154;BME280;32907;41.412;2.164;2024-02-15T02:41:44;101020.41;;;20.07;54.65
47154;BME280;32907;41.412;2.164;2024-02-15T02:44:12;101018.75;;;20.11;54.49
47154;BME280;32907;41.412;2.164;2024-02-15T02:46:41;101018.50;;;20.07;54.77
47154;BME280;32907;41.412;2.164;2024-02-15T02:49:09;101001.94;;;19.99;54.74
47154;BME280;32907;41.412;2.164;2024-02-15T02:51:38;101017.69;;;20.07;54.52
47154;BME280;32907;41.412;2.164;2024-02-15T02:54:06;101014.16;;;20.06;54.95
47154;BME280;32907;41.412;2.164;2024-02-15T02:56:35;101004.91;;;20.07;54.49
47154;BME280;32907;41.412;2.164;2024-02-15T02:59:03;100995.34;;;20.05;54.53
47154;BME280;32907;41.412;2.164;2024-02-15T03:01:32;100996.44;;;20.09;54.77
47154;BME280;32907;41.412;2.164;2024-02-15T03:04:00;100995.91;;;20.07;54.51
47154;BME280;32907;41.412;2.164;2024-02-15T03:06:29;100992.38;;;20.06;54.48
47154;BME280;32907;41.412;2.164;2024-02-15T03:08:57;101000.56;;;20.06;54.51
47154;BME280;32907;41.412;2.164;2024-02-15T03:11:26;100997.53;;;20.08;54.82
47154;BME280;32907;41.412;2.164;2024-02-15T03:13:54;100991.00;;;20.09;54.56
47154;BME280;32907;41.412;2.164;2024-02-15T03:16:22;100992.06;;;20.13;54.48
47154;BME280;32907;41.412;2.164;2024-02-15T03:18:53;100986.09;;;20.11;54.43
47154;BME280;32907;41.412;2.164;2024-02-15T03:21:21;100981.16;;;20.13;54.38
47154;BME280;32907;41.412;2.164;2024-02-15T03:23:49;100979.53;;;20.12;54.40
47154;BME280;32907;41.412;2.164;2024-02-15T03:26:28;100989.91;;;20.10;54.13
47154;BME280;32907;41.412;2.164;2024-02-15T03:28:58;100990.44;;;20.12;54.12
47154;BME280;32907;41.412;2.164;2024-02-15T03:31:26;100979.28;;;20.14;54.08
47154;BME280;32907;41.412;2.164;2024-02-15T03:33:54;100977.09;;;20.16;54.04
47154;BME280;32907;41.412;2.164;2024-02-15T03:36:22;100959.44;;;20.08;54.15
47154;BME280;32907;41.412;2.164;2024-02-15T03:38:50;100973.78;;;20.19;53.90
47154;BME280;32907;41.412;2.164;2024-02-15T03:41:20;100975.97;;;20.22;53.89
47154;BME280;32907;41.412;2.164;2024-02-15T03:43:48;100968.59;;;20.22;54.05
47154;BME280;32907;41.412;2.164;2024-02-15T03:46:17;100975.69;;;20.23;53.84
47154;BME280;32907;41.412;2.164;2024-02-15T03:48:45;100971.03;;;20.24;54.05
47154;BME280;32907;41.412;2.164;2024-02-15T03:51:17;100970.75;;;20.25;54.04
47154;BME280;32907;41.412;2.164;2024-02-15T03:53:51;100962.88;;;20.24;53.93
47154;BME280;32907;41.412;2.164;2024-02-15T03:56:20;100949.84;;;20.16;53.81
47154;BME280;32907;41.412;2.164;2024-02-15T03:58:51;100970.75;;;20.25;53.92
47154;BME280;32907;41.412;2.164;2024-02-15T04:01:19;100963.41;;;20.26;53.88
47154;BME280;32907;41.412;2.164;2024-02-15T04:03:48;100960.38;;;20.27;53.83
47154;BME280;32907;41.412;2.164;2024-02-15T04:06:16;100965.84;;;20.27;53.95
47154;BME280;32907;41.412;2.164;2024-02-15T04:08:44;100961.78;;;20.25;53.46
47154;BME280;32907;41.412;2.164;2024-02-15T04:11:12;100951.69;;;20.25;54.00
47154;BME280;32907;41.412;2.164;2024-02-15T04:13:40;100950.59;;;20.26;53.98
47154;BME280;32907;41.412;2.164;2024-02-15T04:16:10;100949.50;;;20.27;53.83
47154;BME280;32907;41.412;2.164;2024-02-15T04:18:38;100955.75;;;20.28;53.68
47154;BME280;32907;41.412;2.164;2024-02-15T04:21:07;100947.59;;;20.28;53.49
47154;BME280;32907;41.412;2.164;2024-02-15T04:23:36;100928.38;;;20.14;53.78
47154;BME280;32907;41.412;2.164;2024-02-15T04:26:04;100938.59;;;20.27;53.65
47154;BME280;32907;41.412;2.164;2024-02-15T04:28:33;100944.84;;;20.28;53.60
47154;BME280;32907;41.412;2.164;2024-02-15T04:31:01;100939.69;;;20.26;53.69
47154;BME280;32907;41.412;2.164;2024-02-15T04:33:29;100948.69;;;20.27;53.66
47154;BME280;32907;41.412;2.164;2024-02-15T04:35:58;100944.84;;;20.28;53.80
47154;BME280;32907;41.412;2.164;2024-02-15T04:38:26;100942.19;;;20.23;53.56
47154;BME280;32907;41.412;2.164;2024-02-15T04:40:54;100941.91;;;20.24;53.67
47154;BME280;32907;41.412;2.164;2024-02-15T04:43:23;100944.34;;;20.26;53.50
47154;BME280;32907;41.412;2.164;2024-02-15T04:45:53;100951.69;;;20.25;53.55
47154;BME280;32907;41.412;2.164;2024-02-15T04:48:21;100951.69;;;20.25;53.62
47154;BME280;32907;41.412;2.164;2024-02-15T04:50:52;100950.06;;;20.24;53.67
47154;BME280;32907;41.412;2.164;2024-02-15T04:53:22;100949.53;;;20.22;53.38
47154;BME280;32907;41.412;2.164;2024-02-15T04:55:51;100953.91;;;20.23;53.41
47154;BME280;32907;41.412;2.164;2024-02-15T04:58:19;100949.53;;;20.22;53.62
47154;BME280;32907;41.412;2.164;2024-02-15T05:00:47;100949.81;;;20.21;53.73
47154;BME280;32907;41.412;2.164;2024-02-15T05:03:20;100955.00;;;20.22;53.72
47154;BME280;32907;41.412;2.164;2024-02-15T05:05:48;100949.53;;;20.22;53.62
47154;BME280;32907;41.412;2.164;2024-02-15T05:08:16;100937.56;;;20.18;53.38
47154;BME280;32907;41.412;2.164;2024-02-15T05:10:44;100945.19;;;20.21;53.78
47154;BME280;32907;41.412;2.164;2024-02-15T05:13:13;100938.09;;;20.20;53.35
47154;BME280;32907;41.412;2.164;2024-02-15T05:15:44;100936.47;;;20.19;53.20
47154;BME280;32907;41.412;2.164;2024-02-15T05:18:13;100937.28;;;20.20;53.18
47154;BME280;32907;41.412;2.164;2024-02-15T05:20:41;100930.22;;;20.19;52.90
47154;BME280;32907;41.412;2.164;2024-02-15T05:23:09;100940.31;;;20.18;52.92
47154;BME280;32907;41.412;2.164;2024-02-15T05:25:37;100944.94;;;20.18;52.95
47154;BME280;32907;41.412;2.164;2024-02-15T05:28:05;100948.47;;;20.18;52.60
47154;BME280;32907;41.412;2.164;2024-02-15T05:30:35;100946.84;;;20.17;52.85
47154;BME280;32907;41.412;2.164;2024-02-15T05:33:05;100932.19;;;20.08;52.71
47154;BME280;32907;41.412;2.164;2024-02-15T05:35:38;100950.38;;;20.18;52.72
47154;BME280;32907;41.412;2.164;2024-02-15T05:38:09;100939.78;;;20.16;53.16
47154;BME280;32907;41.412;2.164;2024-02-15T05:40:39;100941.41;;;20.17;53.12
47154;BME280;32907;41.412;2.164;2024-02-15T05:43:07;100932.16;;;20.13;53.19
47154;BME280;32907;41.412;2.164;2024-02-15T05:45:36;100938.16;;;20.15;53.13
47154;BME280;32907;41.412;2.164;2024-02-15T05:48:07;100933.81;;;20.09;53.64
47154;BME280;32907;41.412;2.164;2024-02-15T05:50:36;100930.28;;;20.14;53.94
47154;BME280;32907;41.412;2.164;2024-02-15T05:53:05;100924.53;;;20.15;53.98
47154;BME280;32907;41.412;2.164;2024-02-15T05:55:35;100927.50;;;20.19;53.97
47154;BME280;32907;41.412;2.164;2024-02-15T05:58:05;100920.69;;;20.21;53.94
47154;BME280;32907;41.412;2.164;2024-02-15T06:00:35;100924.47;;;20.25;53.64
47154;BME280;32907;41.412;2.164;2024-02-15T06:03:06;100892.19;;;20.03;53.55
47154;BME280;32907;41.412;2.164;2024-02-15T06:05:37;100919.84;;;20.21;53.25
47154;BME280;32907;41.412;2.164;2024-02-15T06:08:06;100921.75;;;20.25;53.71
47154;BME280;32907;41.412;2.164;2024-02-15T06:10:34;100913.66;;;20.15;53.35
47154;BME280;32907;41.412;2.164;2024-02-15T06:13:02;100921.75;;;20.25;53.39
47154;BME280;32907;41.412;2.164;2024-02-15T06:15:30;100918.19;;;20.25;53.38
47154;BME280;32907;41.412;2.164;2024-02-15T06:17:59;100921.44;;;20.27;52.87
47154;BME280;32907;41.412;2.164;2024-02-15T06:20:27;100919.25;;;20.29;52.84
47154;BME280;32907;41.412;2.164;2024-02-15T06:22:57;100916.59;;;20.24;52.96
47154;BME280;32907;41.412;2.164;2024-02-15T06:25:25;100924.44;;;20.30;53.09
47154;BME280;32907;41.412;2.164;2024-02-15T06:27:54;100937.19;;;20.35;52.66
47154;BME280;32907;41.412;2.164;2024-02-15T06:30:29;100936.09;;;20.36;52.66
47154;BME280;32907;41.412;2.164;2024-02-15T06:33:16;100940.19;;;20.38;52.57
47154;BME280;32907;41.412;2.164;2024-02-15T06:36:06;100943.94;;;20.43;52.43
47154;BME280;32907;41.412;2.164;2024-02-15T06:38:53;100941.75;;;20.50;52.47
47154;BME280;32907;41.412;2.164;2024-02-15T06:41:40;100941.16;;;20.53;52.64
47154;BME280;32907;41.412;2.164;2024-02-15T06:44:08;100939.50;;;20.57;52.46
47154;BME280;32907;41.412;2.164;2024-02-15T06:46:37;100942.47;;;20.60;52.48
47154;BME280;32907;41.412;2.164;2024-02-15T06:49:05;100924.22;;;20.61;52.09
47154;BME280;32907;41.412;2.164;2024-02-15T06:51:34;100926.91;;;20.66;51.86
47154;BME280;32907;41.412;2.164;2024-02-15T06:54:02;100923.38;;;20.65;51.46
47154;BME280;32907;41.412;2.164;2024-02-15T06:56:30;100931.25;;;20.67;50.48
47154;BME280;32907;41.412;2.164;2024-02-15T06:59:03;100936.69;;;20.67;50.32
47154;BME280;32907;41.412;2.164;2024-02-15T07:01:31;100927.41;;;20.68;50.28
47154;BME280;32907;41.412;2.164;2024-02-15T07:04:01;100923.59;;;20.69;50.27
47154;BME280;32907;41.412;2.164;2024-02-15T07:06:31;100923.59;;;20.69;49.60
47154;BME280;32907;41.412;2.164;2024-02-15T07:08:59;100922.56;;;20.65;49.67
47154;BME280;32907;41.412;2.164;2024-02-15T07:11:28;100919.53;;;20.66;49.70
47154;BME280;32907;41.412;2.164;2024-02-15T07:13:58;100935.84;;;20.72;49.84
47154;BME280;32907;41.412;2.164;2024-02-15T07:16:26;100945.94;;;20.71;49.81
47154;BME280;32907;41.412;2.164;2024-02-15T07:18:54;100960.91;;;20.74;50.15
47154;BME280;32907;41.412;2.164;2024-02-15T07:21:24;100958.19;;;20.74;50.40
47154;BME280;32907;41.412;2.164;2024-02-15T07:23:55;100958.50;;;20.67;49.41
47154;BME280;32907;41.412;2.164;2024-02-15T07:26:24;100959.03;;;20.69;49.31
47154;BME280;32907;41.412;2.164;2024-02-15T07:28:54;100966.13;;;20.70;49.40
47154;BME280;32907;41.412;2.164;2024-02-15T07:31:26;100974.28;;;20.70;48.96
47154;BME280;32907;41.412;2.164;2024-02-15T07:33:55;100967.19;;;20.69;49.37
47154;BME280;32907;41.412;2.164;2024-02-15T07:36:23;100968.03;;;20.70;49.24
47154;BME280;32907;41.412;2.164;2024-02-15T07:38:52;100971.03;;;20.68;49.64
47154;BME280;32907;41.412;2.164;2024-02-15T07:41:21;100971.03;;;20.68;50.55
47154;BME280;32907;41.412;2.164;2024-02-15T07:43:50;100982.47;;;20.70;50.10
47154;BME280;32907;41.412;2.164;2024-02-15T07:46:19;100982.19;;;20.72;49.75
47154;BME280;32907;41.412;2.164;2024-02-15T07:48:48;100980.81;;;20.69;49.43
47154;BME280;32907;41.412;2.164;2024-02-15T07:51:18;100975.91;;;20.71;50.13
47154;BME280;32907;41.412;2.164;2024-02-15T07:53:48;100969.88;;;20.74;50.02
47154;BME280;32907;41.412;2.164;2024-02-15T07:56:17;100978.06;;;20.74;49.97
47154;BME280;32907;41.412;2.164;2024-02-15T07:58:49;100971.28;;;20.72;50.09
47154;BME280;32907;41.412;2.164;2024-02-15T08:01:21;100942.25;;;20.52;50.11
47154;BME280;32907;41.412;2.164;2024-02-15T08:03:51;100978.03;;;20.79;50.24
47154;BME280;32907;41.412;2.164;2024-02-15T08:06:22;100976.63;;;20.82;50.54
47154;BME280;32907;41.412;2.164;2024-02-15T08:08:58;100971.44;;;20.85;50.73
47154;BME280;32907;41.412;2.164;2024-02-15T08:11:27;100973.06;;;20.86;51.09
47154;BME280;32907;41.412;2.164;2024-02-15T08:13:55;100986.13;;;20.89;50.69
47154;BME280;32907;41.412;2.164;2024-02-15T08:16:27;100995.63;;;20.92;50.18
47154;BME280;32907;41.412;2.164;2024-02-15T08:18:55;100967.06;;;20.84;50.29
47154;BME280;32907;41.412;2.164;2024-02-15T08:21:28;100979.00;;;20.93;51.34
47154;BME280;32907;41.412;2.164;2024-02-15T08:23:57;100986.84;;;21.00;51.06
47154;BME280;32907;41.412;2.164;2024-02-15T08:26:26;100989.81;;;21.04;51.22
47154;BME280;32907;41.412;2.164;2024-02-15T08:28:54;100987.38;;;21.02;51.31
47154;BME280;32907;41.412;2.164;2024-02-15T08:31:23;100978.13;;;20.98;51.64
47154;BME280;32907;41.412;2.164;2024-02-15T08:33:51;101004.44;;;21.13;51.24
47154;BME280;32907;41.412;2.164;2024-02-15T08:36:21;101004.19;;;21.09;51.19
47154;BME280;32907;41.412;2.164;2024-02-15T08:38:50;101009.03;;;21.17;51.27
47154;BME280;32907;41.412;2.164;2024-02-15T08:41:18;101012.59;;;21.18;50.92
47154;BME280;32907;41.412;2.164;2024-02-15T08:43:48;101011.50;;;21.19;51.10
47154;BME280;32907;41.412;2.164;2024-02-15T08:46:17;101002.31;;;21.10;50.67
47154;BME280;32907;41.412;2.164;2024-02-15T08:48:46;101027.06;;;21.13;50.19
47154;BME280;32907;41.412;2.164;2024-02-15T08:51:15;101025.44;;;21.12;49.96
47154;BME280;32907;41.412;2.164;2024-02-15T08:53:44;101030.09;;;21.12;49.84
47154;BME280;32907;41.412;2.164;2024-02-15T08:56:13;101038.81;;;21.09;49.72
47154;BME280;32907;41.412;2.164;2024-02-15T08:58:41;101031.22;;;21.06;50.04
47154;BME280;32907;41.412;2.164;2024-02-15T09:01:10;101031.53;;;21.04;50.19
47154;BME280;32907;41.412;2.164;2024-02-15T09:03:41;101027.19;;;21.03;49.99
47154;BME280;32907;41.412;2.164;2024-02-15T09:06:10;101023.91;;;21.01;50.12
47154;BME280;32907;41.412;2.164;2024-02-15T09:08:38;101018.19;;;21.03;49.95
47154;BME280;32907;41.412;2.164;2024-02-15T09:11:07;101013.00;;;21.01;50.37
47154;BME280;32907;41.412;2.164;2024-02-15T09:13:40;101015.72;;;21.01;50.40
47154;BME280;32907;41.412;2.164;2024-02-15T09:16:08;101017.06;;;21.04;50.53
47154;BME280;32907;41.412;2.164;2024-02-15T09:18:37;101012.97;;;21.06;49.96
47154;BME280;32907;41.412;2.164;2024-02-15T09:21:06;101014.06;;;21.05;50.10
47154;BME280;32907;41.412;2.164;2024-02-15T09:23:34;101016.50;;;21.07;49.77
47154;BME280;32907;41.412;2.164;2024-02-15T09:26:02;101011.03;;;21.07;49.84
47154;BME280;32907;41.412;2.164;2024-02-15T09:28:31;101011.84;;;21.07;49.96
47154;BME280;32907;41.412;2.164;2024-02-15T09:31:00;101017.31;;;21.07;49.63
47154;BME280;32907;41.412;2.164;2024-02-15T09:33:29;101009.41;;;21.06;49.67
47154;BME280;32907;41.412;2.164;2024-02-15T09:35:57;100996.06;;;21.04;49.55
47154;BME280;32907;41.412;2.164;2024-02-15T09:38:26;101004.19;;;21.09;49.23
47154;BME280;32907;41.412;2.164;2024-02-15T09:40:54;101000.94;;;21.07;49.11
47154;BME280;32907;41.412;2.164;2024-02-15T09:43:23;100997.94;;;21.09;49.59
47154;BME280;32907;41.412;2.164;2024-02-15T09:45:56;101000.66;;;21.09;49.19
47154;BME280;32907;41.412;2.164;2024-02-15T09:48:25;100995.19;;;21.09;49.60
47154;BME280;32907;41.412;2.164;2024-02-15T09:50:54;100987.59;;;21.06;49.50
47154;BME280;32907;41.412;2.164;2024-02-15T09:53:24;100996.00;;;21.09;49.49
47154;BME280;32907;41.412;2.164;2024-02-15T09:55:54;100993.56;;;21.08;49.12
47154;BME280;32907;41.412;2.164;2024-02-15T09:58:22;100985.97;;;21.05;49.43
47154;BME280;32907;41.412;2.164;2024-02-15T10:00:53;100987.59;;;21.06;49.57
47154;BME280;32907;41.412;2.164;2024-02-15T10:03:23;100985.16;;;21.04;49.04
47154;BME280;32907;41.412;2.164;2024-02-15T10:05:53;100981.63;;;21.04;49.26
47154;BME280;32907;41.412;2.164;2024-02-15T10:08:21;100984.34;;;21.04;48.88
47154;BME280;32907;41.412;2.164;2024-02-15T10:11:08;100986.78;;;21.05;49.20
47154;BME280;32907;41.412;2.164;2024-02-15T10:13:37;100989.81;;;21.04;48.90
47154;BME280;32907;41.412;2.164;2024-02-15T10:16:16;100980.00;;;21.03;49.04
47154;BME280;32907;41.412;2.164;2024-02-15T10:18:46;100989.22;;;21.07;48.85
47154;BME280;32907;41.412;2.164;2024-02-15T10:21:27;100966.72;;;20.96;49.49
47154;BME280;32907;41.412;2.164;2024-02-15T10:24:08;100969.66;;;21.00;49.22
47154;BME280;32907;41.412;2.164;2024-02-15T10:26:37;100983.78;;;21.07;49.42
47154;BME280;32907;41.412;2.164;2024-02-15T10:29:10;100984.28;;;21.09;49.51
47154;BME280;32907;41.412;2.164;2024-02-15T10:31:40;100982.38;;;21.09;50.05
47154;BME280;32907;41.412;2.164;2024-02-15T10:34:20;100981.81;;;21.12;49.86
47154;BME280;32907;41.412;2.164;2024-02-15T10:36:49;100982.63;;;21.13;49.86
47154;BME280;32907;41.412;2.164;2024-02-15T10:39:18;100979.91;;;21.13;49.81
47154;BME280;32907;41.412;2.164;2024-02-15T10:41:52;100978.81;;;21.14;50.27
47154;BME280;32907;41.412;2.164;2024-02-15T10:44:23;100979.91;;;21.13;49.82
47154;BME280;32907;41.412;2.164;2024-02-15T10:46:53;100983.44;;;21.13;49.17
47154;BME280;32907;41.412;2.164;2024-02-15T10:49:23;100978.28;;;21.12;49.09
47154;BME280;32907;41.412;2.164;2024-02-15T10:52:01;100970.09;;;21.12;49.16
47154;BME280;32907;41.412;2.164;2024-02-15T10:57:19;100965.47;;;21.12;49.06
47154;BME280;32907;41.412;2.164;2024-02-15T10:59:57;100976.06;;;21.14;49.21
47154;BME280;32907;41.412;2.164;2024-02-15T11:02:30;100971.13;;;21.16;48.75
47154;BME280;32907;41.412;2.164;2024-02-15T11:05:05;100965.69;;;21.16;49.11
47154;BME280;32907;41.412;2.164;2024-02-15T11:07:37;100959.13;;;21.17;49.25
47154;BME280;32907;41.412;2.164;2024-02-15T11:10:08;100962.91;;;21.21;49.30
47154;BME280;32907;41.412;2.164;2024-02-15T11:12:39;100943.31;;;21.19;49.47
47154;BME280;32907;41.412;2.164;2024-02-15T11:15:09;100956.88;;;21.24;49.03
47154;BME280;32907;41.412;2.164;2024-02-15T11:20:45;100945.69;;;21.26;48.45
47154;BME280;32907;41.412;2.164;2024-02-15T11:22:57;100938.31;;;21.26;47.76
47154;BME280;32907;41.412;2.164;2024-02-15T11:25:35;100938.06;;;21.28;46.88
47154;BME280;32907;41.412;2.164;2024-02-15T11:30:50;100901.81;;;21.22;47.27
47154;BME280;32907;41.412;2.164;2024-02-15T11:33:33;100911.81;;;21.32;47.23
47154;BME280;32907;41.412;2.164;2024-02-15T11:36:12;100902.81;;;21.31;46.85
47154;BME280;32907;41.412;2.164;2024-02-15T11:38:41;100903.06;;;21.35;47.42
47154;BME280;32907;41.412;2.164;2024-02-15T11:41:17;100898.44;;;21.35;47.12
47154;BME280;32907;41.412;2.164;2024-02-15T11:43:47;100907.94;;;21.38;46.43
47154;BME280;32907;41.412;2.164;2024-02-15T11:46:27;100890.75;;;21.37;46.03
47154;BME280;32907;41.412;2.164;2024-02-15T11:49:00;100892.38;;;21.38;45.00
47154;BME280;32907;41.412;2.164;2024-02-15T11:51:36;100885.81;;;21.39;45.58
47154;BME280;32907;41.412;2.164;2024-02-15T11:54:09;100875.41;;;21.41;44.01
47154;BME280;32907;41.412;2.164;2024-02-15T11:59:16;100865.56;;;21.45;43.31
47154;BME280;32907;41.412;2.164;2024-02-15T12:01:57;100854.63;;;21.45;42.80
47154;BME280;32907;41.412;2.164;2024-02-15T12:04:44;100854.03;;;21.48;41.74
47154;BME280;32907;41.412;2.164;2024-02-15T12:07:31;100856.50;;;21.50;41.07
47154;BME280;32907;41.412;2.164;2024-02-15T12:10:20;100832.06;;;21.40;40.99
47154;BME280;32907;41.412;2.164;2024-02-15T12:13:06;100843.38;;;21.52;40.19
47154;BME280;32907;41.412;2.164;2024-02-15T12:16:00;100841.66;;;21.56;39.66
47154;BME280;32907;41.412;2.164;2024-02-15T12:18:46;100824.03;;;21.48;40.66
47154;BME280;32907;41.412;2.164;2024-02-15T12:21:27;100836.75;;;21.58;39.61
47154;BME280;32907;41.412;2.164;2024-02-15T12:23:56;100830.19;;;21.59;40.07
47154;BME280;32907;41.412;2.164;2024-02-15T12:26:24;100826.63;;;21.59;39.16
47154;BME280;32907;41.412;2.164;2024-02-15T12:28:54;100824.41;;;21.61;39.39
47154;BME280;32907;41.412;2.164;2024-02-15T12:31:24;100824.41;;;21.61;39.04
47154;BME280;32907;41.412;2.164;2024-02-15T12:34:05;100816.25;;;21.61;41.38
47154;BME280;32907;41.412;2.164;2024-02-15T12:36:37;100815.13;;;21.62;42.88
47154;BME280;32907;41.412;2.164;2024-02-15T12:39:07;100798.09;;;21.51;44.22
47154;BME280;32907;41.412;2.164;2024-02-15T12:41:40;100804.00;;;21.58;44.88
47154;BME280;32907;41.412;2.164;2024-02-15T12:44:09;100808.66;;;21.58;45.99
47154;BME280;32907;41.412;2.164;2024-02-15T12:46:40;100803.25;;;21.53;46.45
47154;BME280;32907;41.412;2.164;2024-02-15T12:49:29;100808.09;;;21.56;46.94
47154;BME280;32907;41.412;2.164;2024-02-15T12:52:34;100797.78;;;21.53;47.36
47154;BME280;32907;41.412;2.164;2024-02-15T12:55:10;100802.16;;;21.54;47.57
47154;BME280;32907;41.412;2.164;2024-02-15T12:57:42;100797.28;;;21.50;47.59
47154;BME280;32907;41.412;2.164;2024-02-15T13:00:14;100786.38;;;21.50;47.51
47154;BME280;32907;41.412;2.164;2024-02-15T13:02:50;100790.19;;;21.49;47.59
47154;BME280;32907;41.412;2.164;2024-02-15T13:05:19;100790.19;;;21.49;47.50
47154;BME280;32907;41.412;2.164;2024-02-15T13:07:50;100783.09;;;21.48;48.08
47154;BME280;32907;41.412;2.164;2024-02-15T13:10:19;100780.38;;;21.48;48.14
47154;BME280;32907;41.412;2.164;2024-02-15T13:12:47;100762.03;;;21.35;48.57
47154;BME280;32907;41.412;2.164;2024-02-15T13:15:16;100781.47;;;21.47;48.07
47154;BME280;32907;41.412;2.164;2024-02-15T13:17:55;100770.00;;;21.50;48.50